Time;durP1;ratioP1;P1;durP2;ratioP2;P2;SDS_P1;SDS_P2;PMS_P1;PMS_P2;Temp;Humidity;BMP_temperature;BMP_pressure;BME280_temperature;BME280_humidity;BME280_pressure;Samples;Min_cycle;Max_cycle;Signal;HPM_P1;HPM_P2
2023/09/21 00:01:12;;;;;;;2.47;2.27;;;22.60;60.10;23.40;99496.00;;;;5011642;28;20625;-51
2023/09/21 00:03:41;;;;;;;2.53;2.33;;;22.60;60.10;23.40;99490.00;;;;5011077;28;20190;-51
2023/09/21 00:06:07;;;;;;;2.50;2.30;;;22.50;60.00;23.40;99488.00;;;;5011076;28;20179;-51
2023/09/21 00:08:33;;;;;;;2.70;2.50;;;22.60;60.00;23.40;99496.00;;;;5010808;28;20183;-52
2023/09/21 00:10:58;;;;;;;2.60;2.40;;;22.60;60.10;23.40;99492.00;;;;5011099;28;20215;-52
2023/09/21 00:13:27;;;;;;;2.50;2.30;;;22.50;60.10;23.40;99488.00;;;;5011087;28;20199;-52
2023/09/21 00:15:54;;;;;;;2.50;2.30;;;22.50;60.00;23.40;99484.00;;;;5011436;28;20253;-52
2023/09/21 00:18:22;;;;;;;2.93;2.30;;;22.60;60.20;23.40;99478.00;;;;5009550;28;20230;-52
2023/09/21 00:20:54;;;;;;;2.47;2.27;;;22.50;60.00;23.30;99478.00;;;;5010909;28;20234;-51
2023/09/21 00:23:23;;;;;;;2.93;2.20;;;22.50;60.10;23.30;99479.00;;;;5020514;28;20415;-58
2023/09/21 00:25:49;;;;;;;2.60;2.40;;;22.50;60.00;23.30;99478.00;;;;5026453;28;20187;-52
2023/09/21 00:28:14;;;;;;;4.37;2.30;;;22.50;60.00;23.30;99469.00;;;;5011904;28;20662;-52
2023/09/21 00:30:41;;;;;;;2.67;2.30;;;22.50;60.00;23.30;99464.00;;;;5011943;28;20227;-52
2023/09/21 00:33:07;;;;;;;2.37;2.17;;;22.50;60.90;23.30;99457.00;;;;5009544;28;20273;-52
2023/09/21 00:35:40;;;;;;;2.50;2.30;;;22.50;60.00;23.30;99459.00;;;;5009847;28;20183;-52
2023/09/21 00:38:10;;;;;;;2.60;2.13;;;22.40;60.00;23.30;99462.00;;;;5019481;28;20335;-59
2023/09/21 00:40:38;;;;;;;3.17;2.40;;;22.50;60.10;23.30;99455.00;;;;5022663;28;20321;-52
2023/09/21 00:43:06;;;;;;;2.50;2.30;;;22.50;60.10;23.30;99446.00;;;;5010234;28;20677;-52
2023/09/21 00:45:36;;;;;;;2.60;2.40;;;22.50;60.10;23.20;99444.00;;;;5011811;28;20198;-58
2023/09/21 00:48:03;;;;;;;2.60;2.40;;;22.40;60.80;23.20;99432.00;;;;5009949;28;20573;-52
2023/09/21 00:50:28;;;;;;;2.43;2.23;;;22.40;60.00;23.20;99437.00;;;;4993410;28;20648;-53
2023/09/21 00:52:54;;;;;;;2.57;2.37;;;22.40;60.00;23.20;99432.00;;;;5009460;28;20207;-52
2023/09/21 00:55:23;;;;;;;2.50;2.30;;;22.40;60.00;23.20;99419.00;;;;5009355;28;20179;-52
2023/09/21 00:57:50;;;;;;;2.50;2.30;;;22.40;60.10;23.20;99422.00;;;;5009194;28;20286;-52
2023/09/21 01:00:16;;;;;;;2.60;2.13;;;22.40;60.10;23.20;99416.00;;;;5009213;28;20294;-52
2023/09/21 01:02:42;;;;;;;2.40;2.20;;;22.40;60.20;23.10;99405.00;;;;5009212;28;20237;-52
2023/09/21 01:05:16;;;;;;;3.50;2.40;;;22.40;60.10;23.20;99408.00;;;;5010280;28;20202;-52
2023/09/21 01:07:43;;;;;;;2.60;2.40;;;22.40;60.10;23.20;99401.00;;;;5008807;28;20202;-52
2023/09/21 01:10:13;;;;;;;2.60;2.40;;;22.40;60.00;23.10;99401.00;;;;5007135;28;20248;-51
2023/09/21 01:12:40;;;;;;;2.40;2.20;;;22.40;60.00;23.10;99402.00;;;;5008913;28;20212;-51
2023/09/21 01:15:08;;;;;;;2.50;2.30;;;22.40;60.10;23.10;99401.00;;;;5008651;28;20183;-53
2023/09/21 01:17:34;;;;;;;2.20;2.10;;;22.30;60.00;23.10;99395.00;;;;5008836;28;20270;-53
2023/09/21 01:20:13;;;;;;;2.40;2.20;;;22.40;60.10;23.10;99392.00;;;;5008457;28;20222;-52
2023/09/21 01:22:38;;;;;;;2.60;2.40;;;22.30;59.90;23.10;99388.00;;;;5009728;28;20209;-52
2023/09/21 01:25:05;;;;;;;2.40;2.20;;;22.30;59.90;23.10;99392.00;;;;4975997;28;20614;-51
2023/09/21 01:27:34;;;;;;;2.43;2.23;;;22.30;59.90;23.00;99394.00;;;;4991891;28;20191;-52
2023/09/21 01:29:59;;;;;;;2.67;2.47;;;22.30;59.90;23.00;99380.00;;;;5008540;28;20218;-52
2023/09/21 01:32:26;;;;;;;3.67;2.10;;;22.30;59.90;23.00;99380.00;;;;5008435;28;20207;-53
2023/09/21 01:34:51;;;;;;;2.50;2.30;;;22.30;59.80;23.00;99377.00;;;;5009385;28;20721;-52
2023/09/21 01:37:17;;;;;;;2.50;2.30;;;22.30;59.80;23.00;99374.00;;;;5009645;28;20175;-53
2023/09/21 01:39:44;;;;;;;4.20;2.40;;;22.30;59.80;23.00;99300.00;;;;5009514;28;20261;-52
2023/09/21 01:42:10;;;;;;;2.53;2.33;;;22.30;59.70;23.00;99370.00;;;;5008049;28;20187;-51
2023/09/21 01:44:35;;;;;;;2.90;2.40;;;22.30;59.70;23.00;99366.00;;;;5008321;28;20198;-52
2023/09/21 01:47:01;;;;;;;2.77;2.50;;;22.30;59.60;23.00;99370.00;;;;5008119;28;20274;-52
2023/09/21 01:49:27;;;;;;;2.50;2.30;;;22.20;59.50;23.00;99359.00;;;;5007855;28;20222;-52
2023/09/21 01:51:53;;;;;;;2.50;2.30;;;22.20;59.50;23.00;99358.00;;;;5007958;28;20205;-54
2023/09/21 01:54:18;;;;;;;3.40;2.10;;;22.20;59.50;23.00;99363.00;;;;5007715;28;20266;-52
2023/09/21 01:56:44;;;;;;;2.60;2.40;;;22.20;59.50;23.00;99363.00;;;;5009340;28;20903;-52
2023/09/21 01:59:10;;;;;;;2.40;2.20;;;22.20;59.40;23.00;99362.00;;;;5008943;28;20765;-52
2023/09/21 02:01:36;;;;;;;2.50;2.30;;;22.20;59.50;22.90;99352.00;;;;5009081;28;20200;-52
2023/09/21 02:04:02;;;;;;;2.50;2.30;;;22.20;59.50;22.90;99348.00;;;;5009164;28;20187;-51
2023/09/21 02:06:28;;;;;;;2.40;2.20;;;22.20;59.60;23.00;99342.00;;;;5009167;28;20241;-51
2023/09/21 02:08:54;;;;;;;2.67;2.43;;;22.20;59.50;22.90;99346.00;;;;5008782;28;20550;-51
2023/09/21 02:11:20;;;;;;;2.50;2.30;;;22.20;59.60;22.90;99331.00;;;;4991476;28;20200;-52
2023/09/21 02:13:45;;;;;;;2.50;2.30;;;22.20;59.50;22.90;99341.00;;;;5007753;28;20674;-52
2023/09/21 02:16:14;;;;;;;2.30;2.10;;;22.20;59.50;22.90;99328.00;;;;5008883;28;20237;-51
2023/09/21 02:18:40;;;;;;;3.70;2.40;;;22.20;59.50;22.90;99333.00;;;;5007511;28;20282;-59
2023/09/21 02:21:11;;;;;;;2.87;2.20;;;22.20;59.50;22.90;99329.00;;;;5007527;28;20674;-52
2023/09/21 02:23:40;;;;;;;2.43;2.23;;;22.10;59.40;22.90;99332.00;;;;5008757;28;20305;-52
2023/09/21 02:26:06;;;;;;;2.43;2.23;;;22.10;59.40;22.90;99330.00;;;;5016884;28;20190;-52
2023/09/21 02:28:32;;;;;;;3.10;2.10;;;22.20;59.40;22.90;99326.00;;;;5026426;28;20191;-52
2023/09/21 02:30:58;;;;;;;2.20;2.10;;;22.10;59.40;22.90;99322.00;;;;5009985;28;20246;-52
2023/09/21 02:33:24;;;;;;;2.40;2.20;;;22.10;59.40;22.80;99324.00;;;;5009552;28;20689;-52
2023/09/21 02:35:50;;;;;;;2.90;2.40;;;22.10;59.40;22.80;99320.00;;;;5009031;28;20179;-52
2023/09/21 02:38:22;;;;;;;2.40;2.20;;;22.10;59.40;22.80;99319.00;;;;5008506;28;20646;-52
2023/09/21 02:40:48;;;;;;;2.50;2.30;;;22.10;59.30;22.80;99313.00;;;;5015071;28;20215;-52
2023/09/21 02:43:15;;;;;;;2.30;2.10;;;22.10;59.40;22.80;99292.00;;;;5022921;28;20187;-51
2023/09/21 02:45:41;;;;;;;2.60;2.40;;;22.10;59.50;22.80;99312.00;;;;5007970;28;20535;-52
2023/09/21 02:48:08;;;;;;;2.37;2.17;;;22.10;59.40;22.80;99296.00;;;;5006623;28;20199;-52
2023/09/21 02:50:34;;;;;;;2.80;2.60;;;22.10;59.40;22.80;99300.00;;;;5007511;28;20669;-53
2023/09/21 02:53:08;;;;;;;2.53;2.33;;;22.10;59.40;22.80;99294.00;;;;4990772;28;20203;-52
2023/09/21 02:55:35;;;;;;;2.40;2.20;;;22.00;59.40;22.80;99287.00;;;;5008740;28;20186;-52
2023/09/21 02:58:15;;;;;;;2.63;2.10;;;22.10;59.40;22.80;99279.00;;;;5007197;28;20184;-52
2023/09/21 03:00:43;;;;;;;2.17;2.00;;;22.00;59.40;22.70;99291.00;;;;5007142;28;20578;-53
2023/09/21 03:03:16;;;;;;;2.70;2.50;;;22.00;59.40;22.70;99274.00;;;;5009751;28;20784;-52
2023/09/21 03:05:46;;;;;;;3.73;2.20;;;22.00;59.40;22.70;99285.00;;;;5009686;28;20192;-53
2023/09/21 03:08:15;;;;;;;2.97;2.30;;;22.10;59.50;22.70;99281.00;;;;5009154;28;20187;-53
2023/09/21 03:10:43;;;;;;;2.83;2.23;;;22.00;59.40;22.70;99272.00;;;;5006769;28;20210;-52
2023/09/21 03:13:10;;;;;;;2.50;2.10;;;22.00;59.40;22.70;99267.00;;;;5009386;28;20220;-52
2023/09/21 03:15:36;;;;;;;2.37;2.17;;;22.00;59.40;22.70;99263.00;;;;5008323;28;20180;-53
2023/09/21 03:18:07;;;;;;;2.73;2.50;;;22.00;59.40;22.70;99267.00;;;;5009152;28;20278;-52
2023/09/21 03:20:36;;;;;;;2.57;2.37;;;22.00;59.50;22.70;99269.00;;;;5009302;28;20693;-51
2023/09/21 03:23:09;;;;;;;2.23;2.13;;;22.00;59.50;22.70;99260.00;;;;5008055;28;20187;-51
2023/09/21 03:25:40;;;;;;;2.67;2.40;;;22.00;59.60;22.70;99264.00;;;;5009198;28;20350;-52
2023/09/21 03:28:16;;;;;;;2.10;2.00;;;21.90;59.50;22.70;99248.00;;;;5009237;28;20610;-54
2023/09/21 03:30:46;;;;;;;5.30;2.83;;;22.00;59.50;22.70;99246.00;;;;5008937;28;20281;-53
2023/09/21 03:33:12;;;;;;;2.83;2.63;;;21.90;59.40;22.70;99244.00;;;;5009028;28;20287;-52
2023/09/21 03:35:38;;;;;;;6.63;2.50;;;21.90;59.50;22.60;99196.00;;;;4991691;28;20291;-53
2023/09/21 03:38:14;;;;;;;3.60;2.20;;;21.90;59.60;22.60;99236.00;;;;5008883;28;20275;-53
2023/09/21 03:40:41;;;;;;;2.97;2.30;;;21.90;59.60;22.60;99247.00;;;;5009337;28;20203;-52
2023/09/21 03:43:11;;;;;;;4.03;2.40;;;21.90;59.60;22.60;99244.00;;;;5008516;28;20271;-53
2023/09/21 03:45:37;;;;;;;5.07;2.40;;;22.00;59.70;22.60;99241.00;;;;5009563;28;20187;-52
2023/09/21 03:48:06;;;;;;;3.47;2.30;;;21.90;59.70;22.60;99239.00;;;;5009203;28;20770;-52
2023/09/21 03:50:31;;;;;;;3.63;2.40;;;21.90;59.70;22.60;99238.00;;;;5009372;28;20686;-53
2023/09/21 03:53:03;;;;;;;3.57;2.43;;;21.90;59.70;22.60;99230.00;;;;5009498;28;20215;-53
2023/09/21 03:55:29;;;;;;;2.93;2.40;;;21.90;59.70;22.60;99226.00;;;;5009389;28;20559;-53
2023/09/21 03:57:55;;;;;;;3.10;2.50;;;21.90;59.60;22.60;99222.00;;;;5009003;28;20190;-53
2023/09/21 04:03:09;;;;;;;2.50;2.30;;;21.90;59.60;22.60;99224.00;;;;5012258;28;20262;-52
2023/09/21 04:05:36;;;;;;;2.70;2.30;;;21.90;59.70;22.50;99223.00;;;;5012461;28;20554;-53
2023/09/21 04:08:02;;;;;;;2.67;2.30;;;21.80;59.60;22.50;99218.00;;;;5012193;28;20196;-53
2023/09/21 04:10:28;;;;;;;2.50;2.30;;;21.80;59.60;22.50;99208.00;;;;5010752;28;20199;-53
2023/09/21 04:12:57;;;;;;;2.47;2.27;;;21.80;59.60;22.50;99207.00;;;;4994354;28;20203;-53
2023/09/21 04:15:28;;;;;;;2.63;2.40;;;21.80;59.60;22.50;99205.00;;;;5011928;28;20176;-53
2023/09/21 04:17:54;;;;;;;2.40;2.20;;;21.80;59.60;22.50;99211.00;;;;5011929;28;20183;-53
2023/09/21 04:20:21;;;;;;;2.50;2.30;;;21.80;59.60;22.40;99203.00;;;;5010886;28;20214;-53
2023/09/21 04:22:49;;;;;;;2.67;2.47;;;21.80;59.60;22.50;99192.00;;;;5012252;28;20289;-52
2023/09/21 04:25:16;;;;;;;2.73;2.33;;;21.80;59.70;22.50;99191.00;;;;5011136;28;20597;-53
2023/09/21 04:27:44;;;;;;;2.60;2.40;;;21.80;59.70;22.50;99197.00;;;;5012360;28;20288;-53
2023/09/21 04:30:14;;;;;;;2.67;2.27;;;21.80;59.80;22.50;99189.00;;;;5029673;28;20203;-53
2023/09/21 04:32:41;;;;;;;2.77;2.40;;;21.80;59.80;22.50;99184.00;;;;5014573;28;20196;-53
2023/09/21 04:35:07;;;;;;;2.60;2.40;;;21.80;59.80;22.50;99196.00;;;;5012318;28;20176;-53
2023/09/21 04:37:34;;;;;;;3.03;2.30;;;21.80;59.80;22.50;99206.00;;;;5012507;28;20185;-52
2023/09/21 04:40:09;;;;;;;3.20;2.57;;;21.80;60.00;22.40;99194.00;;;;5013263;28;20207;-53
2023/09/21 04:42:38;;;;;;;3.40;2.57;;;21.80;60.00;22.40;99200.00;;;;5013376;28;20191;-53
2023/09/21 04:45:08;;;;;;;4.33;2.50;;;21.70;60.00;22.40;99194.00;;;;5030279;28;20371;-52
2023/09/21 04:47:36;;;;;;;2.60;2.40;;;21.70;60.00;22.40;99193.00;;;;5014788;28;20192;-52
2023/09/21 04:50:02;;;;;;;3.03;2.33;;;21.70;60.20;22.40;99190.00;;;;5011656;28;20238;-53
2023/09/21 04:52:30;;;;;;;2.53;2.33;;;21.80;60.20;22.40;99199.00;;;;5011543;28;20261;-53
2023/09/21 04:54:57;;;;;;;2.50;2.30;;;21.70;60.10;22.40;99189.00;;;;5010511;28;20237;-53
2023/09/21 04:57:22;;;;;;;2.60;2.40;;;21.70;60.20;22.40;99196.00;;;;5010367;28;20184;-52
2023/09/21 04:59:48;;;;;;;2.60;2.40;;;21.70;60.30;22.40;99196.00;;;;5011509;28;20188;-53
2023/09/21 05:02:14;;;;;;;2.77;2.20;;;21.70;60.30;22.40;99199.00;;;;5011258;28;20191;-52
2023/09/21 05:04:40;;;;;;;3.80;2.30;;;21.70;60.30;22.40;99189.00;;;;5011286;28;20234;-52
2023/09/21 05:07:06;;;;;;;2.80;2.50;;;21.70;60.30;22.40;99202.00;;;;5002275;28;20386;-51
2023/09/21 05:09:33;;;;;;;4.13;2.60;;;21.70;60.30;22.40;99201.00;;;;5006921;28;20654;-52
2023/09/21 05:11:59;;;;;;;3.00;2.50;;;21.70;60.30;22.40;99195.00;;;;5010600;28;20552;-52
2023/09/21 05:14:25;;;;;;;4.27;2.60;;;21.70;60.30;22.40;99187.00;;;;5010831;28;20183;-52
2023/09/21 05:16:56;;;;;;;5.73;2.67;;;21.70;60.50;22.40;99194.00;;;;5010673;28;20172;-52
2023/09/21 05:19:22;;;;;;;2.73;2.50;;;21.70;60.40;22.30;99133.00;;;;5010319;28;20191;-52
2023/09/21 05:21:48;;;;;;;3.73;2.60;;;21.70;60.60;22.30;99199.00;;;;5010282;28;20261;-52
2023/09/21 05:24:14;;;;;;;2.87;2.60;;;21.70;60.60;22.30;99194.00;;;;5010744;28;20258;-52
2023/09/21 05:26:40;;;;;;;5.13;2.73;;;21.70;60.60;22.30;99201.00;;;;5010790;28;20184;-52
2023/09/21 05:29:06;;;;;;;3.27;2.70;;;21.70;60.70;22.30;99204.00;;;;5008877;28;20222;-52
2023/09/21 05:31:32;;;;;;;2.70;2.50;;;21.70;60.80;22.30;99201.00;;;;5010209;28;20207;-52
2023/09/21 05:34:00;;;;;;;3.37;2.33;;;21.60;60.60;22.30;99210.00;;;;5009340;28;20350;-52
2023/09/21 05:36:26;;;;;;;3.13;2.50;;;21.60;60.60;22.30;99216.00;;;;5010352;28;20227;-52
2023/09/21 05:38:51;;;;;;;7.13;2.60;;;21.60;60.60;22.30;99214.00;;;;5009548;28;20183;-52
2023/09/21 05:41:17;;;;;;;2.90;2.60;;;21.60;60.90;22.20;99215.00;;;;5008639;28;20706;-51
2023/09/21 05:43:43;;;;;;;4.67;2.90;;;21.60;60.90;22.20;99217.00;;;;4992673;28;20196;-53
2023/09/21 05:46:11;;;;;;;4.90;3.83;;;21.60;61.00;22.20;99212.00;;;;5009940;28;20594;-53
2023/09/21 05:48:37;;;;;;;6.40;3.40;;;21.50;61.30;22.20;99214.00;;;;5009048;28;20203;-53
2023/09/21 05:51:04;;;;;;;4.30;3.60;;;21.60;61.50;22.20;99223.00;;;;5008953;28;20219;-53
2023/09/21 05:53:31;;;;;;;6.50;4.50;;;21.50;61.70;22.20;99218.00;;;;5010069;28;20353;-53
2023/09/21 05:55:57;;;;;;;6.13;4.17;;;21.50;62.10;22.20;99228.00;;;;5010044;28;20176;-54
2023/09/21 05:58:24;;;;;;;5.67;3.60;;;21.60;62.20;22.20;99221.00;;;;5009610;28;20190;-53
2023/09/21 06:00:49;;;;;;;5.00;4.27;;;21.60;62.20;22.20;99222.00;;;;5009076;28;20705;-53
2023/09/21 06:03:16;;;;;;;4.27;3.60;;;21.50;62.20;22.20;99210.00;;;;4991960;28;20183;-53
2023/09/21 06:05:45;;;;;;;4.07;3.23;;;21.60;62.30;22.20;99213.00;;;;5009331;28;20179;-52
2023/09/21 06:08:10;;;;;;;6.10;3.80;;;21.60;62.30;22.20;99223.00;;;;5009543;28;20270;-52
2023/09/21 06:10:36;;;;;;;6.17;3.77;;;21.50;62.40;22.20;99214.00;;;;5008329;28;20282;-54
2023/09/21 06:13:07;;;;;;;6.97;3.97;;;21.50;62.50;22.20;99212.00;;;;5009145;28;20211;-53
2023/09/21 06:15:33;;;;;;;6.73;4.20;;;21.50;62.60;22.20;99219.00;;;;5004315;28;20184;-52
2023/09/21 06:17:59;;;;;;;4.13;2.90;;;21.50;63.00;22.20;99223.00;;;;5009001;28;20183;-52
2023/09/21 06:20:26;;;;;;;4.47;3.33;;;21.50;62.90;22.20;99218.00;;;;5009190;28;20202;-52
2023/09/21 06:22:52;;;;;;;4.03;3.10;;;21.50;62.90;22.20;99217.00;;;;5007100;28;20184;-52
2023/09/21 06:25:20;;;;;;;3.10;2.70;;;21.50;62.90;22.20;99211.00;;;;5011182;28;20708;-52
2023/09/21 06:27:46;;;;;;;4.50;2.70;;;21.50;62.90;22.20;99208.00;;;;5012617;28;20184;-52
2023/09/21 06:30:15;;;;;;;2.97;2.67;;;21.50;62.90;22.20;99199.00;;;;5011294;28;20210;-52
2023/09/21 06:32:40;;;;;;;4.33;2.80;;;21.50;62.90;22.10;99201.00;;;;5018598;28;20238;-53
2023/09/21 06:35:08;;;;;;;3.20;2.90;;;21.50;62.90;22.10;99188.00;;;;5019139;28;20183;-52
2023/09/21 06:37:35;;;;;;;3.20;2.67;;;21.50;63.30;22.10;99191.00;;;;5010225;28;20211;-53
2023/09/21 06:40:01;;;;;;;2.50;2.30;;;21.50;62.90;22.10;99193.00;;;;5009263;28;20680;-53
2023/09/21 06:42:27;;;;;;;3.00;2.30;;;21.50;63.00;22.10;99200.00;;;;5009343;28;20245;-53
2023/09/21 06:44:54;;;;;;;2.90;2.60;;;21.40;63.90;22.10;99205.00;;;;5009699;28;20187;-53
2023/09/21 06:47:22;;;;;;;2.60;2.40;;;21.50;63.20;22.10;99195.00;;;;5017118;28;20532;-53
2023/09/21 06:49:53;;;;;;;2.80;2.60;;;21.50;63.30;22.10;99183.00;;;;5024406;28;20196;-53
2023/09/21 06:52:18;;;;;;;2.50;2.30;;;21.40;63.30;22.10;99177.00;;;;5007850;28;20183;-53
2023/09/21 06:54:45;;;;;;;2.50;2.30;;;21.40;63.40;22.10;99186.00;;;;5008174;28;20191;-53
2023/09/21 06:57:13;;;;;;;2.77;2.40;;;21.50;63.60;22.10;99186.00;;;;5007817;28;20179;-53
2023/09/21 06:59:39;;;;;;;2.73;2.53;;;21.50;63.40;22.10;99176.00;;;;5008300;28;20176;-53
2023/09/21 07:02:05;;;;;;;3.00;2.70;;;21.50;63.60;22.10;99189.00;;;;5008589;28;20195;-53
2023/09/21 07:04:33;;;;;;;2.70;2.50;;;21.50;63.70;22.20;99189.00;;;;5008503;28;20198;-53
2023/09/21 07:07:05;;;;;;;3.43;2.60;;;21.50;63.80;22.10;99172.00;;;;5008063;28;20183;-53
2023/09/21 07:09:33;;;;;;;2.60;2.40;;;21.50;63.80;22.20;99165.00;;;;5009043;28;20241;-52
2023/09/21 07:11:58;;;;;;;2.93;2.47;;;21.50;64.10;22.20;99166.00;;;;4990029;28;20167;-52
2023/09/21 07:14:24;;;;;;;2.60;2.40;;;21.50;64.10;22.10;99162.00;;;;5009142;28;20725;-54
2023/09/21 07:16:50;;;;;;;2.80;2.50;;;21.50;64.20;22.20;99167.00;;;;5009434;28;20184;-52
2023/09/21 07:19:16;;;;;;;2.90;2.60;;;21.50;64.30;22.10;99161.00;;;;5009203;28;20275;-53
2023/09/21 07:21:41;;;;;;;2.67;2.47;;;21.40;64.30;22.10;99162.00;;;;5009393;28;20210;-52
2023/09/21 07:24:08;;;;;;;3.20;2.50;;;21.40;64.40;22.10;99173.00;;;;5008021;28;20187;-53
2023/09/21 07:26:34;;;;;;;4.40;2.50;;;21.40;64.70;22.10;99180.00;;;;5009100;28;20210;-53
2023/09/21 07:29:06;;;;;;;2.80;2.50;;;21.40;64.70;22.10;99170.00;;;;5005732;28;20187;-53
2023/09/21 07:31:33;;;;;;;2.80;2.43;;;21.40;64.90;22.00;99173.00;;;;5005466;28;20286;-52
2023/09/21 07:34:02;;;;;;;4.20;2.83;;;21.40;64.90;22.10;99161.00;;;;5009429;28;20235;-53
2023/09/21 07:36:28;;;;;;;2.70;2.50;;;21.40;65.00;22.10;99187.00;;;;5012206;28;20606;-53
2023/09/21 07:38:55;;;;;;;2.73;2.50;;;21.50;65.90;22.20;99181.00;;;;5011134;28;20241;-53
2023/09/21 07:41:21;;;;;;;2.67;2.47;;;21.50;65.10;22.20;99193.00;;;;5011964;28;20204;-53
2023/09/21 07:43:48;;;;;;;2.80;2.50;;;21.50;65.20;22.20;99184.00;;;;5012182;28;20186;-53
2023/09/21 07:46:14;;;;;;;3.10;2.43;;;21.50;65.10;22.20;99191.00;;;;4994733;28;20642;-53
2023/09/21 07:48:41;;;;;;;2.60;2.40;;;21.50;65.60;22.20;99184.00;;;;5010942;28;20646;-52
2023/09/21 07:51:07;;;;;;;2.77;2.57;;;21.50;65.60;22.20;99179.00;;;;5012167;28;20203;-53
2023/09/21 07:53:35;;;;;;;2.70;2.50;;;21.40;65.50;22.20;99180.00;;;;5011301;28;20781;-52
2023/09/21 07:56:04;;;;;;;2.63;2.40;;;21.50;65.60;22.20;99170.00;;;;5012266;28;20597;-53
2023/09/21 07:58:30;;;;;;;2.67;2.47;;;21.50;65.70;22.20;99165.00;;;;5012045;28;20249;-53
2023/09/21 08:00:55;;;;;;;2.93;2.63;;;21.50;65.60;22.20;99182.00;;;;5012226;28;20698;-53
2023/09/21 08:03:25;;;;;;;3.20;2.70;;;21.50;65.90;22.20;99183.00;;;;5011054;28;20199;-52
2023/09/21 08:05:59;;;;;;;3.20;2.90;;;21.50;65.80;22.20;99193.00;;;;5011740;28;20267;-53
2023/09/21 08:08:25;;;;;;;3.90;2.70;;;21.50;65.90;22.20;99193.00;;;;5012060;28;20567;-53
2023/09/21 08:10:53;;;;;;;3.70;2.43;;;21.60;66.40;22.20;99185.00;;;;5008603;28;20641;-52
2023/09/21 08:13:20;;;;;;;2.87;2.60;;;21.60;66.70;22.30;99190.00;;;;5011286;28;20215;-52
2023/09/21 08:15:46;;;;;;;5.83;2.60;;;21.60;66.60;22.30;99189.00;;;;5011916;28;20186;-53
2023/09/21 08:18:12;;;;;;;2.90;2.60;;;21.60;66.70;22.30;99191.00;;;;5010480;28;20289;-52
2023/09/21 08:20:39;;;;;;;4.37;2.70;;;21.60;67.20;22.30;99194.00;;;;5010537;28;20278;-52
2023/09/21 08:23:08;;;;;;;4.30;2.60;;;21.60;67.20;22.30;99190.00;;;;5011296;28;20188;-52
2023/09/21 08:25:35;;;;;;;4.90;2.60;;;21.60;67.20;22.30;99189.00;;;;5011466;28;20663;-52
2023/09/21 08:28:03;;;;;;;4.60;2.70;;;21.60;67.50;22.30;99193.00;;;;4994197;28;20793;-52
2023/09/21 08:30:33;;;;;;;4.20;2.57;;;21.70;67.80;22.30;99202.00;;;;5010226;28;20662;-52
2023/09/21 08:32:59;;;;;;;3.10;2.70;;;21.60;67.90;22.30;99204.00;;;;5010165;28;20239;-52
2023/09/21 08:35:25;;;;;;;2.80;2.50;;;21.70;67.90;22.40;99202.00;;;;5013689;28;20183;-52
2023/09/21 08:37:51;;;;;;;3.50;2.60;;;21.70;68.20;22.40;99211.00;;;;5028492;28;20180;-52
2023/09/21 08:40:21;;;;;;;3.03;2.40;;;21.60;68.30;22.40;99214.00;;;;5011146;28;20200;-52
2023/09/21 08:42:48;;;;;;;3.83;2.40;;;21.70;68.50;22.40;99210.00;;;;5011521;28;20558;-52
2023/09/21 08:45:14;;;;;;;3.43;2.70;;;21.70;68.30;22.40;99204.00;;;;4993608;28;20190;-52
2023/09/21 08:47:40;;;;;;;4.53;2.60;;;21.70;68.80;22.40;99211.00;;;;4994035;28;20183;-53
2023/09/21 08:50:07;;;;;;;3.73;2.50;;;21.70;68.50;22.40;99204.00;;;;5011514;28;20207;-53
2023/09/21 08:52:33;;;;;;;3.77;2.60;;;21.70;68.70;22.40;99209.00;;;;5026289;28;20242;-53
2023/09/21 08:54:59;;;;;;;2.43;2.23;;;21.70;68.70;22.30;99206.00;;;;4995559;28;20534;-53
2023/09/21 08:57:25;;;;;;;4.33;2.70;;;21.70;68.50;22.50;99203.00;;;;5010999;28;20555;-52
2023/09/21 08:59:51;;;;;;;3.67;2.47;;;21.70;69.20;22.50;99202.00;;;;5010109;28;20597;-53
2023/09/21 09:02:17;;;;;;;3.97;2.67;;;21.80;69.00;22.50;99183.00;;;;4993953;28;20225;-54
2023/09/21 09:04:43;;;;;;;3.53;2.63;;;21.70;69.40;22.50;99204.00;;;;4976891;28;20207;-61
2023/09/21 09:07:10;;;;;;;3.43;2.70;;;21.80;69.70;22.50;99205.00;;;;5010283;28;20238;-54
2023/09/21 09:09:39;;;;;;;3.60;2.90;;;21.80;69.60;22.50;99209.00;;;;5011061;28;20188;-53
2023/09/21 09:12:21;;;;;;;5.10;2.80;;;21.80;69.70;22.50;99212.00;;;;5011136;28;20215;-53
2023/09/21 09:14:47;;;;;;;2.90;2.63;;;21.80;70.60;22.50;99206.00;;;;5008533;28;20190;-52
2023/09/21 09:17:14;;;;;;;6.03;2.70;;;21.80;69.60;22.50;99213.00;;;;5009227;28;20183;-52
2023/09/21 09:19:40;;;;;;;3.03;2.50;;;21.80;69.60;22.50;99215.00;;;;5005390;28;20240;-52
2023/09/21 09:22:06;;;;;;;4.03;2.70;;;21.80;69.80;22.50;99213.00;;;;5010552;28;20564;-52
2023/09/21 09:24:33;;;;;;;2.97;2.43;;;21.80;69.60;22.60;99212.00;;;;5009533;28;20314;-53
2023/09/21 09:27:00;;;;;;;3.03;2.60;;;21.80;69.80;22.50;99214.00;;;;5010542;28;20652;-53
2023/09/21 09:29:26;;;;;;;2.90;2.60;;;21.80;69.80;22.50;99210.00;;;;4976706;28;20179;-53
2023/09/21 09:31:52;;;;;;;2.70;2.50;;;21.80;70.10;22.50;99208.00;;;;5010621;28;20199;-52
2023/09/21 09:34:18;;;;;;;5.30;2.80;;;21.80;69.80;22.60;99134.00;;;;5009106;28;20435;-54
2023/09/21 09:36:55;;;;;;;3.17;2.60;;;21.90;69.90;22.60;99204.00;;;;5010440;28;20183;-52
2023/09/21 09:39:23;;;;;;;3.70;2.60;;;21.90;70.10;22.60;99203.00;;;;5008810;28;20183;-52
2023/09/21 09:41:50;;;;;;;4.13;2.90;;;21.90;70.70;22.60;99194.00;;;;5009208;28;20227;-53
2023/09/21 09:44:21;;;;;;;3.37;2.60;;;22.00;70.70;22.70;99189.00;;;;5008596;28;20553;-52
2023/09/21 09:46:48;;;;;;;3.70;2.60;;;22.00;70.70;22.70;99193.00;;;;5009203;28;20198;-53
2023/09/21 09:49:14;;;;;;;2.97;2.67;;;22.00;70.90;22.70;99189.00;;;;4992515;28;20207;-53
2023/09/21 09:51:46;;;;;;;3.30;2.50;;;22.00;70.60;22.70;99191.00;;;;5009635;28;20293;-53
2023/09/21 09:54:16;;;;;;;4.20;2.73;;;22.00;70.70;22.80;99197.00;;;;5008437;28;20242;-52
2023/09/21 09:56:42;;;;;;;3.00;2.73;;;22.10;70.90;22.80;99197.00;;;;5008399;28;20184;-52
2023/09/21 09:59:11;;;;;;;3.40;2.40;;;22.10;70.60;22.80;99195.00;;;;5008585;28;20187;-52
2023/09/21 10:01:41;;;;;;;4.60;2.80;;;22.00;70.30;22.70;99197.00;;;;4992266;28;20439;-52
2023/09/21 10:04:07;;;;;;;3.67;2.80;;;22.00;70.50;22.70;99192.00;;;;5009225;28;20176;-52
2023/09/21 10:06:36;;;;;;;2.67;2.40;;;22.10;70.80;22.80;99195.00;;;;5009927;28;20700;-52
2023/09/21 10:09:13;;;;;;;4.23;3.10;;;22.10;70.70;22.80;99169.00;;;;5009844;28;20183;-53
2023/09/21 10:11:48;;;;;;;3.03;2.73;;;22.10;70.60;22.80;99180.00;;;;4978237;28;20199;-53
2023/09/21 10:14:16;;;;;;;3.73;2.70;;;22.10;70.90;22.80;99181.00;;;;4991839;28;20209;-53
2023/09/21 10:16:49;;;;;;;3.00;2.70;;;22.10;70.90;22.80;99188.00;;;;5005689;28;20212;-53
2023/09/21 10:19:24;;;;;;;3.57;3.00;;;22.10;71.00;22.80;99186.00;;;;5008645;28;20597;-53
2023/09/21 10:22:03;;;;;;;3.80;2.87;;;22.10;71.10;22.80;99177.00;;;;5009784;28;20209;-52
2023/09/21 10:24:29;;;;;;;3.73;3.00;;;22.10;70.90;22.90;99182.00;;;;4977884;28;20187;-52
2023/09/21 10:26:58;;;;;;;3.97;2.90;;;22.10;71.00;22.90;99182.00;;;;5008313;28;20180;-52
2023/09/21 10:29:32;;;;;;;5.27;2.90;;;22.20;70.80;22.90;99181.00;;;;5009413;28;20188;-52
2023/09/21 10:32:01;;;;;;;13.80;4.00;;;22.10;70.60;22.90;99165.00;;;;5008266;28;20180;-52
2023/09/21 10:34:27;;;;;;;19.70;4.37;;;22.20;70.70;23.00;99154.00;;;;5009320;28;20690;-54
2023/09/21 10:37:05;;;;;;;16.33;3.70;;;22.20;71.40;23.00;99157.00;;;;5007945;28;20188;-51
2023/09/21 10:39:31;;;;;;;10.57;3.93;;;22.20;70.40;23.00;99151.00;;;;5009528;28;20583;-51
2023/09/21 10:42:17;;;;;;;15.93;4.13;;;22.30;70.30;23.10;99151.00;;;;5026376;28;20334;-51
2023/09/21 10:44:56;;;;;;;11.43;3.50;;;22.30;70.30;23.10;99154.00;;;;5014448;28;20187;-50
2023/09/21 10:47:28;;;;;;;14.60;3.87;;;22.30;70.20;23.10;99147.00;;;;5009562;28;20274;-51
2023/09/21 10:49:55;;;;;;;8.30;3.20;;;22.40;70.40;23.20;99150.00;;;;5009680;28;20206;-51
2023/09/21 10:52:21;;;;;;;13.90;3.60;;;22.40;70.30;23.20;99146.00;;;;5008379;28;20183;-51
2023/09/21 10:54:48;;;;;;;9.70;3.20;;;22.40;70.10;23.20;99079.00;;;;5008110;28;20676;-51
2023/09/21 10:57:13;;;;;;;13.60;3.77;;;22.40;70.00;23.30;99136.00;;;;5021353;28;20181;-51
2023/09/21 10:59:42;;;;;;;8.73;3.27;;;22.40;70.10;23.30;99136.00;;;;5014355;28;20555;-51